Time;durP1;ratioP1;P1;durP2;ratioP2;P2;SDS_P1;SDS_P2;PMS_P1;PMS_P2;Temp;Humidity;BMP_temperature;BMP_pressure;BME280_temperature;BME280_humidity;BME280_pressure;Samples;Min_cycle;Max_cycle;Signal;HPM_P1;HPM_P2
2023/01/02 00:02:09;;;;;;;5.40;3.60;;;;;;;9.50;78.03;100927.84;1639756;87;21116;-55
2023/01/02 00:04:39;;;;;;;6.30;4.08;;;;;;;9.46;78.17;100924.62;1646614;86;21069;-57
2023/01/02 00:07:09;;;;;;;5.97;4.05;;;;;;;9.44;78.30;100935.40;1665537;86;21052;-55
2023/01/02 00:09:38;;;;;;;8.30;4.25;;;;;;;9.42;78.41;100931.98;1609551;89;21104;-55
2023/01/02 00:12:09;;;;;;;7.83;3.70;;;;;;;9.38;78.42;100919.70;1639279;87;21674;-54
2023/01/02 00:14:39;;;;;;;7.72;4.03;;;;;;;9.36;78.59;100921.76;1665506;86;21169;-55
2023/01/02 00:17:09;;;;;;;6.50;3.60;;;;;;;9.33;78.70;100922.97;1665298;86;21079;-54
2023/01/02 00:19:39;;;;;;;5.72;3.65;;;;;;;9.33;78.76;100928.44;1646424;86;21051;-55
2023/01/02 00:22:08;;;;;;;6.45;3.65;;;;;;;9.30;78.87;100919.73;1665708;86;21079;-55
2023/01/02 00:24:38;;;;;;;6.33;3.90;;;;;;;9.26;79.01;100923.84;1609058;89;21100;-54
2023/01/02 00:27:06;;;;;;;7.03;4.17;;;;;;;9.24;79.13;100934.11;1639818;87;21060;-55
2023/01/02 00:29:39;;;;;;;6.20;4.00;;;;;;;9.24;79.28;100934.11;1665620;86;21091;-55
2023/01/02 00:32:08;;;;;;;6.22;3.52;;;;;;;9.23;79.39;100935.99;1607839;89;21570;-54
2023/01/02 00:34:39;;;;;;;8.10;3.90;;;;;;;9.21;79.39;100932.06;1633283;88;21111;-55
2023/01/02 00:37:10;;;;;;;7.97;3.92;;;;;;;9.21;79.45;100936.16;1633042;88;21235;-54
2023/01/02 00:39:39;;;;;;;7.10;4.25;;;;;;;9.20;79.47;100939.08;1633354;88;21076;-55
2023/01/02 00:42:09;;;;;;;5.95;3.90;;;;;;;9.18;79.57;100937.03;1633145;88;21095;-55
2023/01/02 00:44:38;;;;;;;7.08;4.30;;;;;;;9.18;79.65;100939.25;1633377;88;21500;-56
2023/01/02 00:47:07;;;;;;;6.60;3.95;;;;;;;9.16;79.71;100942.67;1607928;89;21095;-54
2023/01/02 00:49:37;;;;;;;5.90;3.72;;;;;;;9.16;79.72;100940.45;1607674;89;21028;-55
2023/01/02 00:52:06;;;;;;;9.73;4.15;;;;;;;9.14;79.75;100940.63;1535537;93;21163;-54
2023/01/02 00:54:35;;;;;;;8.00;4.33;;;;;;;9.12;79.88;100942.69;1586307;90;21078;-56
2023/01/02 00:57:05;;;;;;;7.92;4.00;;;;;;;9.09;79.98;100944.38;1586743;90;21217;-56
2023/01/02 00:59:34;;;;;;;6.33;4.15;;;;;;;9.08;80.15;100938.56;1586749;90;21129;-56
2023/01/02 01:02:04;;;;;;;5.95;3.80;;;;;;;9.10;80.22;100942.49;1586764;90;21082;-57
2023/01/02 01:04:35;;;;;;;6.33;3.98;;;;;;;9.08;80.23;100944.55;1586523;90;21074;-55
2023/01/02 01:07:06;;;;;;;6.65;4.20;;;;;;;9.09;80.19;100955.30;1538181;92;21090;-54
2023/01/02 01:09:35;;;;;;;5.22;3.80;;;;;;;9.08;80.20;100951.38;1549212;90;21167;-55
2023/01/02 01:12:05;;;;;;;5.95;3.98;;;;;;;9.07;80.25;100954.63;1587522;90;21490;-55
2023/01/02 01:14:37;;;;;;;5.78;4.15;;;;;;;9.07;80.27;100951.89;1579216;91;21075;-55
2023/01/02 01:17:05;;;;;;;6.20;4.12;;;;;;;9.05;80.35;100960.78;1558157;92;21514;-55
2023/01/02 01:19:36;;;;;;;7.65;3.75;;;;;;;9.05;80.39;100953.09;1539200;92;21079;-55
2023/01/02 01:22:05;;;;;;;7.33;4.22;;;;;;;9.04;80.40;100962.33;1538886;92;21123;-55
2023/01/02 01:24:37;;;;;;;7.67;4.10;;;;;;;9.02;80.39;100967.97;1564247;91;21118;-57
2023/01/02 01:27:06;;;;;;;5.92;3.67;;;;;;;9.02;80.46;100961.13;1581563;91;21099;-56
2023/01/02 01:29:35;;;;;;;7.17;4.50;;;;;;;9.01;80.53;100953.96;1592928;88;21064;-55
2023/01/02 01:32:06;;;;;;;6.08;3.90;;;;;;;8.99;80.54;100957.38;1634272;88;21108;-55
2023/01/02 01:34:35;;;;;;;6.95;4.40;;;;;;;8.98;80.64;100954.30;1665441;86;21455;-56
2023/01/02 01:37:07;;;;;;;8.60;4.67;;;;;;;8.95;80.68;100949.70;1609318;89;21477;-55
2023/01/02 01:39:36;;;;;;;6.87;4.70;;;;;;;8.94;80.79;100948.84;1639248;87;21088;-55
2023/01/02 01:42:05;;;;;;;6.97;4.15;;;;;;;8.92;80.85;100953.64;1665449;86;21044;-55
2023/01/02 01:44:50;;;;;;;8.38;5.00;;;;;;;8.89;80.97;100943.05;1665513;86;21067;-56
2023/01/02 01:47:49;;;;;;;5.85;4.22;;;;;;;8.88;81.02;100953.13;1665550;85;21086;-54
2023/01/02 01:50:31;;;;;;;6.40;4.30;;;;;;;8.86;81.14;100953.81;1665585;86;21107;-54
2023/01/02 01:53:14;;;;;;;7.67;4.80;;;;;;;8.86;81.24;100958.42;1646397;86;21031;-55
2023/01/02 01:55:51;;;;;;;9.93;4.67;;;;;;;8.84;81.27;100960.48;1609293;89;21473;-55
2023/01/02 01:58:26;;;;;;;6.10;4.10;;;;;;;8.82;81.30;100956.55;1639590;87;21103;-54
2023/01/02 02:00:55;;;;;;;6.05;4.40;;;;;;;8.81;81.27;100951.27;1665733;86;21075;-55
2023/01/02 02:03:26;;;;;;;7.00;4.75;;;;;;;8.78;81.23;100958.44;1625001;86;21079;-55
2023/01/02 02:05:57;;;;;;;7.05;4.70;;;;;;;8.74;81.39;100957.93;1665296;86;21057;-54
2023/01/02 02:08:45;;;;;;;7.17;4.97;;;;;;;8.73;81.64;100954.86;1609160;89;21077;-54
2023/01/02 02:11:16;;;;;;;6.67;4.45;;;;;;;8.75;81.75;100956.05;1639680;87;21508;-54
2023/01/02 02:13:45;;;;;;;7.92;4.62;;;;;;;8.74;81.80;100956.56;1625269;86;21083;-54
2023/01/02 02:16:21;;;;;;;8.73;4.83;;;;;;;8.75;81.76;100968.34;1609265;89;21058;-54
2023/01/02 02:19:32;;;;;;;7.50;4.20;;;;;;;8.72;81.77;100955.03;1639492;87;21027;-55
2023/01/02 02:22:37;;;;;;;6.10;4.22;;;;;;;8.69;81.87;100964.94;1665512;86;21076;-54
2023/01/02 02:26:02;;;;;;;7.28;4.10;;;;;;;8.68;82.17;100972.79;1665697;85;21118;-54
2023/01/02 02:29:06;;;;;;;9.33;4.55;;;;;;;8.68;82.37;100971.42;1665696;86;21528;-55
2023/01/02 02:31:50;;;;;;;8.55;4.70;;;;;;;8.67;82.47;100977.91;1660369;86;21535;-54
2023/01/02 02:34:46;;;;;;;7.40;4.62;;;;;;;8.66;82.48;100978.94;1648756;87;21103;-54
2023/01/02 02:37:49;;;;;;;6.12;3.95;;;;;;;8.65;82.45;100978.08;1600386;89;21081;-54
2023/01/02 02:40:29;;;;;;;6.95;4.40;;;;;;;8.62;82.47;100983.04;1649170;87;21048;-54
2023/01/02 02:43:10;;;;;;;6.92;4.20;;;;;;;8.60;82.58;100985.94;1648828;87;21072;-55
2023/01/02 02:45:53;;;;;;;7.20;4.42;;;;;;;8.60;82.42;100991.91;1617519;87;21136;-55
2023/01/02 02:48:56;;;;;;;6.70;4.40;;;;;;;8.53;82.56;100998.06;1648796;87;21091;-55
2023/01/02 02:51:55;;;;;;;8.70;4.28;;;;;;;8.49;82.70;101000.79;1648789;87;21069;-55
2023/01/02 02:55:01;;;;;;;9.28;4.58;;;;;;;8.47;82.87;101003.34;1600921;89;21533;-53
2023/01/02 02:57:30;;;;;;;6.72;4.50;;;;;;;8.44;82.99;101015.43;1648759;87;21468;-53
2023/01/02 03:00:02;;;;;;;8.18;4.55;;;;;;;8.42;82.92;101016.63;1632211;87;21088;-54
2023/01/02 03:02:33;;;;;;;8.95;4.47;;;;;;;8.38;82.91;101021.56;1583211;90;21098;-53
2023/01/02 03:05:06;;;;;;;8.45;4.95;;;;;;;8.35;82.98;101017.80;1630943;87;21100;-54
2023/01/02 03:07:41;;;;;;;10.25;5.28;;;;;;;8.30;83.07;101022.89;1649417;87;21061;-54
2023/01/02 03:10:51;;;;;;;10.05;5.25;;;;;;;8.24;83.34;101020.31;1648787;86;21060;-53
2023/01/02 03:13:44;;;;;;;10.40;5.97;;;;;;;8.22;83.39;101017.41;1632048;87;21044;-54
2023/01/02 03:16:38;;;;;;;11.10;5.53;;;;;;;8.18;83.51;101018.77;1600631;90;21102;-55
2023/01/02 03:19:16;;;;;;;12.78;5.85;;;;;;;8.16;83.90;101028.48;1648744;87;21201;-55
2023/01/02 03:21:56;;;;;;;8.90;5.60;;;;;;;8.16;84.15;101023.54;1600676;90;21069;-54
2023/01/02 03:24:28;;;;;;;11.40;5.60;;;;;;;8.15;84.26;101020.46;1648519;87;21477;-54
2023/01/02 03:27:01;;;;;;;9.98;5.55;;;;;;;8.11;84.45;101015.85;1648667;86;21065;-54
2023/01/02 03:29:49;;;;;;;11.15;5.75;;;;;;;8.11;84.47;101016.36;1600429;89;21070;-54
2023/01/02 03:32:26;;;;;;;11.88;6.25;;;;;;;8.08;84.53;101016.18;1582981;89;21146;-54
2023/01/02 03:34:55;;;;;;;9.70;5.53;;;;;;;8.07;84.51;101025.90;1591243;89;21546;-54
2023/01/02 03:37:29;;;;;;;9.33;5.78;;;;;;;8.04;84.52;101030.33;1584722;89;21463;-54
2023/01/02 03:40:01;;;;;;;11.50;6.20;;;;;;;8.04;84.74;101037.16;1583493;89;21113;-54
2023/01/02 03:42:37;;;;;;;11.43;6.62;;;;;;;8.04;84.92;101035.28;1583714;87;21066;-55
2023/01/02 03:45:17;;;;;;;11.57;7.92;;;;;;;8.07;85.14;101034.09;1611654;89;21086;-56
2023/01/02 03:48:14;;;;;;;11.40;7.33;;;;;;;8.09;85.28;101041.60;1611810;89;21062;-54
2023/01/02 03:50:53;;;;;;;10.38;6.47;;;;;;;8.12;85.41;101042.63;1611738;89;21087;-55
2023/01/02 03:53:22;;;;;;;11.28;6.92;;;;;;;8.13;85.53;101037.01;1584150;87;21121;-55
2023/01/02 03:56:18;;;;;;;11.30;7.12;;;;;;;8.16;85.54;101038.55;1611749;89;21066;-54
2023/01/02 03:58:59;;;;;;;12.43;7.00;;;;;;;8.17;85.54;101043.84;1610491;89;21666;-54
2023/01/02 04:01:43;;;;;;;9.70;6.40;;;;;;;8.17;85.39;101044.35;1583438;87;21069;-54
2023/01/02 04:04:30;;;;;;;13.35;7.58;;;;;;;8.15;85.47;101039.06;1528323;92;21102;-59
2023/01/02 04:07:02;;;;;;;11.53;7.37;;;;;;;8.14;85.61;101040.59;1528681;92;21098;-57
2023/01/02 04:09:32;;;;;;;11.73;7.20;;;;;;;8.14;85.57;101052.88;1528624;94;21198;-54
2023/01/02 04:12:10;;;;;;;14.03;7.50;;;;;;;8.15;85.58;101058.68;1492008;94;21122;-54
2023/01/02 04:14:46;;;;;;;13.95;7.08;;;;;;;8.14;85.53;101061.06;1528628;94;21058;-54
2023/01/02 04:17:16;;;;;;;9.50;6.50;;;;;;;8.12;85.46;101056.28;1528491;93;21111;-55
2023/01/02 04:19:52;;;;;;;13.90;7.00;;;;;;;8.08;85.57;101054.91;1510101;94;21510;-55
2023/01/02 04:22:26;;;;;;;11.63;7.40;;;;;;;8.11;85.64;101065.48;1569692;87;21138;-55
2023/01/02 04:25:01;;;;;;;10.08;7.10;;;;;;;8.09;85.65;101067.53;1611755;89;21058;-54
2023/01/02 04:27:36;;;;;;;11.93;6.60;;;;;;;8.05;85.65;101075.19;1611735;89;21082;-54
2023/01/02 04:30:07;;;;;;;11.43;6.55;;;;;;;8.04;85.79;101079.45;1611986;89;21058;-53
2023/01/02 04:32:42;;;;;;;11.55;6.97;;;;;;;8.04;85.95;101084.91;1610500;88;21551;-54
2023/01/02 04:35:18;;;;;;;10.20;6.30;;;;;;;8.05;86.06;101086.62;1612336;87;21170;-54
2023/01/02 04:37:52;;;;;;;10.13;6.00;;;;;;;8.05;86.14;101092.08;1595183;89;21221;-54
2023/01/02 04:40:28;;;;;;;11.75;5.50;;;;;;;8.06;86.33;101091.91;1616083;89;21095;-53
2023/01/02 04:42:57;;;;;;;9.68;5.85;;;;;;;8.10;86.46;101091.08;1615795;89;21075;-54
2023/01/02 04:45:27;;;;;;;9.18;5.75;;;;;;;8.13;86.52;101096.20;1615866;89;21062;-54
2023/01/02 04:47:56;;;;;;;9.53;5.97;;;;;;;8.15;86.60;101099.62;1573372;89;21563;-55
2023/01/02 04:50:26;;;;;;;8.53;5.42;;;;;;;8.15;86.68;101095.02;1616180;89;21090;-54
2023/01/02 04:52:55;;;;;;;11.08;5.67;;;;;;;8.17;86.75;101092.13;1615808;89;21169;-53
2023/01/02 04:55:24;;;;;;;11.35;5.65;;;;;;;8.17;86.66;101105.27;1616048;89;21108;-55
2023/01/02 04:57:55;;;;;;;11.08;5.65;;;;;;;8.18;86.58;101104.75;1615898;89;21062;-54
2023/01/02 05:00:26;;;;;;;8.60;5.60;;;;;;;8.19;86.54;101101.00;1595388;89;21511;-55
2023/01/02 05:02:56;;;;;;;12.40;6.30;;;;;;;8.19;86.62;101117.38;1650911;86;21099;-55
2023/01/02 05:05:26;;;;;;;8.05;5.45;;;;;;;8.21;86.70;101115.34;1665694;86;21079;-54
2023/01/02 05:07:57;;;;;;;10.08;5.80;;;;;;;8.23;86.70;101121.49;1537049;93;21135;-54
2023/01/02 05:10:26;;;;;;;9.35;5.80;;;;;;;8.25;86.72;101127.64;1518499;93;21665;-53
2023/01/02 05:12:58;;;;;;;10.93;5.87;;;;;;;8.25;86.77;101124.40;1560749;92;21365;-54
2023/01/02 05:15:28;;;;;;;11.03;5.55;;;;;;;8.25;86.74;101130.38;1560684;92;21131;-54
2023/01/02 05:17:58;;;;;;;10.15;5.83;;;;;;;8.26;86.75;101129.35;1560848;92;21114;-53
2023/01/02 05:20:27;;;;;;;9.88;5.80;;;;;;;8.26;86.75;101135.67;1560755;92;21102;-54
2023/01/02 05:25:45;;;;;;;12.03;6.58;;;;;;;8.26;86.75;101140.27;1588590;88;21040;-54
2023/01/02 05:28:14;;;;;;;11.95;6.22;;;;;;;8.26;86.76;101144.37;1635342;87;21507;-54
2023/01/02 05:30:43;;;;;;;12.98;6.22;;;;;;;8.26;86.71;101141.64;1635302;88;21086;-55
2023/01/02 05:33:13;;;;;;;14.65;6.90;;;;;;;8.26;86.66;101145.73;1629308;87;21602;-54
2023/01/02 05:35:43;;;;;;;14.00;6.87;;;;;;;8.27;86.79;101148.81;1626222;88;21044;-56
2023/01/02 05:38:12;;;;;;;15.53;7.53;;;;;;;8.26;86.70;101153.41;1607666;88;21071;-54
2023/01/02 05:40:43;;;;;;;13.20;7.05;;;;;;;8.26;86.67;101154.78;1626187;88;21083;-54
2023/01/02 05:43:13;;;;;;;14.87;6.75;;;;;;;8.26;86.68;101152.56;1608003;88;21060;-53
2023/01/02 05:45:42;;;;;;;14.35;7.60;;;;;;;8.26;86.71;101157.52;1626258;88;21072;-54
2023/01/02 05:48:11;;;;;;;13.25;7.00;;;;;;;8.25;86.78;101157.67;1626114;88;21529;-54
2023/01/02 05:50:40;;;;;;;12.95;7.03;;;;;;;8.26;86.77;101153.92;1626484;88;21048;-56
2023/01/02 05:53:11;;;;;;;14.68;7.28;;;;;;;8.25;86.85;101157.16;1626462;88;21060;-55
2023/01/02 05:55:41;;;;;;;14.83;7.30;;;;;;;8.24;86.92;101150.50;1626190;88;21064;-54
2023/01/02 05:58:13;;;;;;;15.60;7.90;;;;;;;8.23;86.91;101151.52;1626292;88;21032;-54
2023/01/02 06:00:43;;;;;;;17.50;9.10;;;;;;;8.17;86.43;101151.67;1626246;88;21052;-55
2023/01/02 06:03:12;;;;;;;27.48;12.20;;;;;;;8.09;86.36;101154.88;1626381;88;21020;-55
2023/01/02 06:05:41;;;;;;;13.48;6.85;;;;;;;8.04;86.18;101158.09;1626321;88;21132;-55
2023/01/02 06:08:14;;;;;;;23.83;10.82;;;;;;;7.92;86.03;101154.79;1578600;91;21586;-54
2023/01/02 06:10:51;;;;;;;21.62;10.90;;;;;;;7.79;85.94;101158.43;1578593;91;21150;-53
2023/01/02 06:13:20;;;;;;;27.07;12.53;;;;;;;7.72;86.06;101161.45;1578783;91;21154;-56
2023/01/02 06:15:53;;;;;;;26.25;12.45;;;;;;;7.61;85.94;101165.81;1559324;92;21091;-54
2023/01/02 06:18:23;;;;;;;32.08;14.78;;;;;;;7.52;86.20;101159.45;1514903;92;21190;-54
2023/01/02 06:20:59;;;;;;;54.48;20.45;;;;;;;7.49;86.43;101162.48;1559354;92;21086;-55
2023/01/02 06:23:28;;;;;;;75.75;27.25;;;;;;;7.47;86.51;101160.94;1552948;92;21130;-55
2023/01/02 06:26:11;;;;;;;44.70;18.23;;;;;;;7.42;86.55;101172.83;1556427;89;21582;-54
2023/01/02 06:28:39;;;;;;;51.88;20.27;;;;;;;7.38;86.69;101171.43;1602377;89;21100;-54
2023/01/02 06:31:12;;;;;;;40.43;16.42;;;;;;;7.32;86.76;101174.28;1609156;89;21115;-55
2023/01/02 06:33:41;;;;;;;39.08;17.40;;;;;;;7.30;86.99;101172.22;1605478;89;21617;-56
2023/01/02 06:36:16;;;;;;;41.98;20.10;;;;;;;7.23;87.03;101174.72;1607130;89;21153;-56
2023/01/02 06:38:46;;;;;;;27.05;13.72;;;;;;;7.19;87.33;101177.41;1586695;89;21534;-57
2023/01/02 06:41:19;;;;;;;41.42;17.92;;;;;;;7.16;87.61;101187.27;1658662;86;21068;-53
2023/01/02 06:43:50;;;;;;;43.48;20.97;;;;;;;7.17;87.90;101182.16;1667890;86;21015;-54
2023/01/02 06:46:21;;;;;;;29.23;13.88;;;;;;;7.16;88.00;101188.63;1665484;86;21062;-55
2023/01/02 06:48:50;;;;;;;33.38;15.98;;;;;;;7.12;88.26;101181.74;1635681;86;21063;-55
2023/01/02 06:51:22;;;;;;;33.63;17.80;;;;;;;7.11;88.42;101187.35;1665797;86;21043;-53
2023/01/02 06:53:51;;;;;;;33.40;17.42;;;;;;;7.10;88.67;101183.77;1665436;86;21467;-55
2023/01/02 06:56:19;;;;;;;34.45;18.67;;;;;;;7.12;88.99;101187.19;1665560;86;21055;-53
2023/01/02 06:58:49;;;;;;;36.38;18.85;;;;;;;7.18;89.16;101193.41;1665444;86;21039;-54
2023/01/02 07:01:20;;;;;;;45.17;21.73;;;;;;;7.21;89.22;101198.55;1665728;86;21136;-55
2023/01/02 07:03:50;;;;;;;51.77;20.65;;;;;;;7.24;89.41;101205.56;1635284;86;21087;-54
2023/01/02 07:06:21;;;;;;;33.67;14.87;;;;;;;7.29;89.55;101204.59;1635699;86;21075;-55
2023/01/02 07:08:52;;;;;;;28.17;13.45;;;;;;;7.35;89.69;101205.83;1665412;86;21503;-55
2023/01/02 07:11:24;;;;;;;63.90;23.77;;;;;;;7.34;89.67;101205.48;1665941;86;21040;-56
2023/01/02 07:13:53;;;;;;;41.37;20.70;;;;;;;7.37;89.85;101202.44;1665531;86;21146;-55
2023/01/02 07:16:22;;;;;;;40.10;19.82;;;;;;;7.40;89.89;101207.06;1665490;86;21107;-54
2023/01/02 07:18:53;;;;;;;23.87;11.88;;;;;;;7.41;89.90;101214.23;1665680;86;21035;-53
2023/01/02 07:21:23;;;;;;;19.25;10.00;;;;;;;7.43;90.02;101208.62;1665579;86;21091;-57
2023/01/02 07:23:52;;;;;;;28.32;14.38;;;;;;;7.48;90.08;101214.45;1665716;86;21064;-55
2023/01/02 07:26:22;;;;;;;23.67;14.33;;;;;;;7.53;90.12;101213.48;1665444;86;21059;-55
2023/01/02 07:28:51;;;;;;;21.07;10.68;;;;;;;7.59;90.10;101221.88;1665634;86;21087;-54
2023/01/02 07:31:21;;;;;;;19.32;11.15;;;;;;;7.64;90.11;101223.63;1665708;86;21064;-55
2023/01/02 07:33:53;;;;;;;19.95;11.18;;;;;;;7.72;90.15;101224.70;1664098;86;21060;-53
2023/01/02 07:36:25;;;;;;;21.02;11.30;;;;;;;7.76;90.12;101228.31;1663449;86;21467;-54
2023/01/02 07:38:56;;;;;;;18.55;10.98;;;;;;;7.83;90.01;101230.79;1663446;86;21435;-55
2023/01/02 07:41:26;;;;;;;19.50;10.68;;;;;;;7.87;89.93;101234.91;1663837;86;21083;-54
2023/01/02 07:43:57;;;;;;;20.30;10.30;;;;;;;7.93;89.87;101231.54;1663620;86;21556;-56
2023/01/02 07:46:26;;;;;;;17.23;9.68;;;;;;;8.02;89.80;101237.05;1663624;86;21118;-55
2023/01/02 07:48:55;;;;;;;18.82;10.05;;;;;;;8.10;89.71;101246.66;1663879;86;21067;-54
2023/01/02 07:51:25;;;;;;;21.50;11.40;;;;;;;8.17;89.64;101240.89;1663684;86;21039;-55
2023/01/02 07:53:58;;;;;;;19.92;11.40;;;;;;;8.25;89.53;101243.16;1663527;86;21115;-56
2023/01/02 07:56:27;;;;;;;21.20;11.33;;;;;;;8.38;89.54;101239.16;1663833;86;21092;-56
2023/01/02 07:58:56;;;;;;;18.70;11.10;;;;;;;8.56;89.55;101242.70;1642360;86;21191;-55
2023/01/02 08:01:25;;;;;;;18.32;10.80;;;;;;;8.78;89.11;101242.61;1663593;86;21048;-55
2023/01/02 08:03:55;;;;;;;21.75;10.80;;;;;;;9.01;88.62;101246.95;1663558;86;21122;-56
2023/01/02 08:06:24;;;;;;;20.45;11.35;;;;;;;9.21;87.86;101250.61;1663435;86;21047;-55
2023/01/02 08:08:53;;;;;;;20.35;11.48;;;;;;;9.40;87.18;101240.38;1663432;86;21103;-54
2023/01/02 08:11:23;;;;;;;21.05;11.95;;;;;;;9.60;86.51;101238.17;1663487;86;21083;-55
2023/01/02 08:13:52;;;;;;;22.55;12.13;;;;;;;9.78;85.61;101235.62;1663426;86;21542;-56
2023/01/02 08:16:22;;;;;;;20.10;11.40;;;;;;;9.96;84.74;101240.06;1663660;86;21534;-56
2023/01/02 08:18:59;;;;;;;25.15;10.85;;;;;;;10.10;83.86;101246.20;1663328;86;21072;-54
2023/01/02 08:21:28;;;;;;;21.15;10.08;;;;;;;10.25;83.02;101246.37;1663689;86;21102;-56
2023/01/02 08:23:58;;;;;;;18.75;9.70;;;;;;;10.35;82.20;101247.88;1663451;86;21521;-56
2023/01/02 08:26:33;;;;;;;18.65;10.25;;;;;;;10.42;81.51;101249.44;1607620;89;21161;-53
2023/01/02 08:29:01;;;;;;;17.50;9.75;;;;;;;10.46;81.07;101250.79;1633796;88;21479;-55
2023/01/02 08:31:31;;;;;;;15.13;8.60;;;;;;;10.50;80.54;101251.30;1613460;88;21119;-54
2023/01/02 08:34:00;;;;;;;20.72;8.70;;;;;;;10.51;80.11;101257.11;1634495;87;21119;-56
2023/01/02 08:36:29;;;;;;;13.22;7.90;;;;;;;10.51;79.78;101248.38;1635188;87;21055;-54
2023/01/02 08:38:58;;;;;;;16.32;9.08;;;;;;;10.52;79.43;101255.56;1635011;88;21119;-55
2023/01/02 08:41:31;;;;;;;18.25;9.98;;;;;;;10.48;79.00;101255.58;1615238;87;21064;-56
2023/01/02 08:44:00;;;;;;;24.00;12.00;;;;;;;10.46;79.14;101264.49;1635366;88;21064;-55
2023/01/02 08:46:31;;;;;;;15.95;9.98;;;;;;;10.45;79.13;101258.16;1635180;87;21072;-54
2023/01/02 08:49:04;;;;;;;22.75;10.15;;;;;;;10.43;79.08;101253.87;1589180;89;21520;-55
2023/01/02 08:51:33;;;;;;;19.30;10.72;;;;;;;10.39;79.09;101259.34;1635239;88;21056;-55
2023/01/02 08:54:05;;;;;;;22.93;10.53;;;;;;;10.36;79.10;101256.44;1635216;88;21735;-55
2023/01/02 08:56:37;;;;;;;17.80;10.13;;;;;;;10.33;78.99;101249.94;1635210;88;21473;-61
2023/01/02 08:59:09;;;;;;;22.10;11.38;;;;;;;10.31;79.01;101249.27;1635393;87;21131;-55
2023/01/02 09:01:38;;;;;;;25.32;11.93;;;;;;;10.27;78.99;101241.05;1635420;88;21091;-58
2023/01/02 09:04:09;;;;;;;20.17;9.93;;;;;;;10.20;78.90;101242.78;1635266;88;21128;-56
2023/01/02 09:06:42;;;;;;;18.73;10.05;;;;;;;10.17;79.16;101243.10;1615155;88;21535;-58
2023/01/02 09:09:13;;;;;;;20.10;10.08;;;;;;;10.17;79.38;101239.84;1636133;86;21143;-57
2023/01/02 09:11:50;;;;;;;20.68;9.45;;;;;;;10.18;79.48;101247.03;1622372;88;21498;-57
2023/01/02 09:14:20;;;;;;;22.02;9.10;;;;;;;10.20;79.43;101246.89;1638443;87;21541;-58
2023/01/02 09:16:51;;;;;;;17.40;8.65;;;;;;;10.20;79.48;101244.16;1652596;87;21097;-57
2023/01/02 09:19:20;;;;;;;14.03;8.83;;;;;;;10.23;79.46;101238.33;1637986;87;21553;-55
2023/01/02 09:21:49;;;;;;;13.90;8.65;;;;;;;10.23;79.18;101242.95;1652246;87;21077;-55
2023/01/02 09:24:20;;;;;;;14.00;8.48;;;;;;;10.21;79.13;101247.23;1652125;86;21510;-56
2023/01/02 09:26:49;;;;;;;17.17;8.28;;;;;;;10.18;79.11;101238.82;1652573;86;21070;-54
2023/01/02 09:29:19;;;;;;;12.75;7.50;;;;;;;10.18;79.11;101239.33;1652079;87;21138;-54
2023/01/02 09:31:48;;;;;;;15.75;7.58;;;;;;;10.17;79.00;101234.88;1652131;87;21324;-57
2023/01/02 09:34:18;;;;;;;19.00;7.70;;;;;;;10.15;79.02;101233.69;1636382;86;21148;-56
2023/01/02 09:36:47;;;;;;;19.25;7.87;;;;;;;10.15;79.08;101231.47;1563793;91;21116;-58
2023/01/02 09:39:17;;;;;;;13.35;7.62;;;;;;;10.15;79.19;101229.58;1564297;91;21146;-56
2023/01/02 09:41:52;;;;;;;18.05;7.22;;;;;;;10.17;79.18;101236.25;1592244;90;21526;-56
2023/01/02 09:44:41;;;;;;;15.32;7.95;;;;;;;10.17;79.13;101230.78;1564028;91;21089;-55
2023/01/02 09:47:16;;;;;;;16.87;7.80;;;;;;;10.18;79.28;101236.08;1553624;92;21568;-54
2023/01/02 09:49:58;;;;;;;10.95;6.25;;;;;;;10.25;79.19;101236.78;1544813;93;21142;-56
2023/01/02 09:52:34;;;;;;;16.52;7.25;;;;;;;10.26;78.95;101225.65;1553727;92;21551;-55
2023/01/02 09:55:15;;;;;;;18.07;7.70;;;;;;;10.25;78.71;101229.94;1604496;87;21060;-58
2023/01/02 09:58:01;;;;;;;15.55;6.90;;;;;;;10.23;78.81;101226.52;1646241;87;21107;-57
2023/01/02 10:00:34;;;;;;;15.18;7.37;;;;;;;10.23;78.87;101236.95;1628765;88;21080;-57
2023/01/02 10:03:27;;;;;;;12.33;6.85;;;;;;;10.25;78.96;101233.53;1629309;88;21526;-56
2023/01/02 10:06:08;;;;;;;17.37;7.17;;;;;;;10.26;78.76;101227.02;1661427;86;21059;-61
2023/01/02 10:08:59;;;;;;;19.23;7.37;;;;;;;10.26;78.88;101227.02;1661408;86;21107;-56
2023/01/02 13:34:32;;;;;;;26.77;12.45;;;;;;;10.20;80.54;101148.30;1829211;77;25941;-63
2023/01/02 13:37:09;;;;;;;24.87;12.10;;;;;;;10.13;80.57;101148.63;1678499;80;21289;-67
2023/01/02 13:39:45;;;;;;;27.62;13.72;;;;;;;10.11;80.62;101149.33;1693583;84;21139;-70
2023/01/02 13:45:20;;;;;;;23.60;11.75;;;;;;;10.07;80.82;101146.09;1659362;86;21130;-68
2023/01/02 13:47:55;;;;;;;61.85;29.85;;;;;;;10.04;80.89;101142.84;1693596;84;21131;-70
2023/01/02 13:50:32;;;;;;;30.00;15.30;;;;;;;10.01;81.19;101145.42;1670961;85;21175;-69
2023/01/02 13:53:26;;;;;;;27.02;13.15;;;;;;;10.01;81.50;101136.35;1688663;85;21135;-70
2023/01/02 13:56:15;;;;;;;24.40;13.20;;;;;;;10.00;81.52;101142.34;1688610;85;21581;-69
2023/01/02 13:58:57;;;;;;;32.28;14.63;;;;;;;9.97;81.52;101150.05;1688541;85;21146;-70
2023/01/02 14:01:35;;;;;;;31.82;17.25;;;;;;;9.96;81.63;101153.31;1688769;85;21174;-70
2023/01/02 14:04:18;;;;;;;30.02;15.25;;;;;;;9.95;81.65;101146.64;1688600;85;21963;-69
2023/01/02 14:06:46;;;;;;;26.02;12.73;;;;;;;9.91;81.72;101140.66;1688347;85;21163;-69
2023/01/02 14:09:21;;;;;;;23.42;12.65;;;;;;;9.85;81.53;101146.33;1642140;86;21781;-68
2023/01/02 14:12:02;;;;;;;24.47;13.58;;;;;;;9.78;81.61;101146.68;1688667;85;21154;-69
2023/01/02 14:14:42;;;;;;;31.00;15.63;;;;;;;9.72;81.70;101147.86;1688642;85;21535;-68
2023/01/02 14:17:51;;;;;;;37.60;17.82;;;;;;;9.69;81.92;101153.16;1688747;84;21180;-74
2023/01/02 14:20:27;;;;;;;37.47;18.63;;;;;;;9.66;82.05;101149.41;1688806;85;21573;-67
2023/01/02 14:23:05;;;;;;;33.13;17.00;;;;;;;9.61;82.25;101135.39;1689017;85;21623;-69
2023/01/02 14:25:44;;;;;;;29.23;16.02;;;;;;;9.57;82.33;101136.77;1688384;85;21146;-71
2023/01/02 14:28:27;;;;;;;27.87;15.50;;;;;;;9.54;82.52;101141.22;1688558;85;21154;-71
2023/01/02 14:30:56;;;;;;;28.32;14.83;;;;;;;9.49;82.52;101138.15;1670735;85;21158;-70
2023/01/02 14:33:34;;;;;;;35.50;20.20;;;;;;;9.42;82.61;101145.34;1688581;85;21135;-74
2023/01/02 14:36:08;;;;;;;31.82;16.60;;;;;;;9.37;82.76;101142.26;1671095;85;21607;-69
2023/01/02 14:38:41;;;;;;;32.75;17.17;;;;;;;9.34;82.94;101145.34;1673219;85;21107;-70
2023/01/02 14:44:00;;;;;;;31.33;16.32;;;;;;;9.29;83.13;101151.32;1680782;84;21605;-70
2023/01/02 14:46:29;;;;;;;33.15;16.45;;;;;;;9.23;83.22;101148.42;1680085;84;21204;-68
2023/01/02 14:52:14;;;;;;;35.48;17.27;;;;;;;9.15;83.51;101149.27;1648506;86;21671;-70
2023/01/02 14:54:54;;;;;;;33.92;16.12;;;;;;;9.11;83.69;101148.76;1664417;86;21616;-73
2023/01/02 14:57:31;;;;;;;33.02;16.50;;;;;;;9.07;83.75;101144.63;1664321;86;21198;-70
2023/01/02 15:00:10;;;;;;;34.30;16.50;;;;;;;9.01;83.94;101135.73;1664380;86;21146;-70
2023/01/02 15:02:38;;;;;;;34.78;16.37;;;;;;;8.96;84.12;101140.85;1664001;86;21158;-70
2023/01/02 15:05:22;;;;;;;36.75;16.77;;;;;;;8.91;84.28;101136.41;1664386;86;21205;-70
2023/01/02 15:07:53;;;;;;;38.25;16.73;;;;;;;8.87;84.42;101133.67;1664342;85;21170;-70
2023/01/02 15:10:24;;;;;;;40.00;17.12;;;;;;;8.84;84.62;101133.50;1664265;85;21675;-70
2023/01/02 15:13:08;;;;;;;34.35;17.10;;;;;;;8.80;84.77;101123.92;1664483;86;21608;-70
2023/01/02 15:15:47;;;;;;;31.17;15.45;;;;;;;8.78;84.92;101134.17;1664453;86;21218;-70
2023/01/02 15:18:32;;;;;;;30.30;16.17;;;;;;;8.72;85.00;101135.34;1664462;86;21194;-70
2023/01/02 15:21:12;;;;;;;31.97;17.05;;;;;;;8.66;85.26;101131.41;1645374;86;21162;-70
2023/01/02 15:23:45;;;;;;;31.90;16.17;;;;;;;8.63;85.62;101126.80;1645519;86;21229;-71
2023/01/02 15:26:31;;;;;;;29.75;16.32;;;;;;;8.60;85.84;101125.77;1645742;86;21173;-69
2023/01/02 15:29:12;;;;;;;31.57;16.75;;;;;;;8.57;85.91;101125.59;1664435;86;21581;-69
2023/01/02 15:31:53;;;;;;;30.52;16.32;;;;;;;8.55;86.17;101124.39;1664377;86;21573;-71
2023/01/02 15:34:32;;;;;;;32.33;17.05;;;;;;;8.50;86.15;101123.18;1664386;86;21162;-69